createdAt,value
2022-07-31T00:00:10.973Z,49.16
2022-07-31T00:02:40.054Z,49.23
2022-07-31T00:05:07.701Z,50.05
2022-07-31T00:07:34.247Z,50.50
2022-07-31T00:10:00.946Z,51.36
2022-07-31T00:12:27.892Z,50.64
2022-07-31T00:14:54.552Z,50.64
2022-07-31T00:17:21.240Z,50.69
2022-07-31T00:19:47.883Z,50.26
2022-07-31T00:22:14.481Z,50.59
2022-07-31T00:24:41.107Z,50.37
2022-07-31T00:27:07.880Z,50.96
2022-07-31T00:29:34.534Z,51.24
2022-07-31T00:32:01.095Z,53.81
2022-07-31T00:34:28.112Z,53.45
2022-07-31T00:36:54.736Z,52.36
2022-07-31T00:39:21.489Z,53.46
2022-07-31T00:41:49.558Z,52.90
2022-07-31T00:44:16.283Z,52.46
2022-07-31T00:46:45.502Z,51.55
2022-07-31T00:49:12.504Z,52.46
2022-07-31T00:51:39.990Z,54.77
2022-07-31T00:54:08.523Z,53.92
2022-07-31T00:56:35.895Z,53.34
2022-07-31T00:59:03.650Z,52.16
2022-07-31T01:01:30.829Z,54.23
2022-07-31T01:03:58.176Z,54.96
2022-07-31T01:06:24.921Z,54.25
2022-07-31T01:08:53.433Z,54.41
2022-07-31T01:11:33.098Z,54.13
2022-07-31T01:14:03.863Z,55.13
2022-07-31T01:16:35.516Z,54.95
2022-07-31T01:19:42.157Z,55.20
2022-07-31T01:22:32.877Z,53.27
2022-07-31T01:25:23.168Z,53.10
2022-07-31T01:28:10.874Z,53.36
2022-07-31T01:31:24.229Z,55.08
2022-07-31T01:33:53.217Z,54.01
2022-07-31T01:36:24.460Z,54.50
2022-07-31T01:38:54.536Z,54.93
2022-07-31T01:41:27.145Z,53.56
2022-07-31T01:43:57.061Z,54.45
2022-07-31T01:46:27.498Z,54.72
2022-07-31T01:48:57.128Z,55.01
2022-07-31T01:51:25.653Z,54.52
2022-07-31T01:53:53.912Z,55.50
2022-07-31T01:56:22.155Z,55.36
2022-07-31T01:58:49.981Z,54.22
2022-07-31T02:01:27.407Z,53.81
2022-07-31T02:03:56.937Z,54.61
2022-07-31T02:06:28.020Z,55.40
2022-07-31T02:08:56.456Z,55.79
2022-07-31T02:11:24.893Z,55.58
2022-07-31T02:13:53.829Z,56.04
2022-07-31T02:16:23.227Z,54.59
2022-07-31T02:18:59.324Z,55.07
2022-07-31T02:21:26.487Z,54.22
2022-07-31T02:23:53.469Z,53.72
2022-07-31T02:26:21.522Z,53.80
2022-07-31T02:28:48.967Z,52.80
2022-07-31T02:31:17.858Z,53.88
2022-07-31T02:33:48.235Z,52.80
2022-07-31T02:36:20.542Z,54.99
2022-07-31T02:38:49.173Z,53.80
2022-07-31T02:41:17.182Z,53.01
2022-07-31T02:43:45.231Z,57.13
2022-07-31T02:46:20.061Z,55.49
2022-07-31T02:48:47.061Z,53.26
2022-07-31T02:51:14.855Z,54.27
2022-07-31T02:53:42.578Z,54.78
2022-07-31T02:56:09.788Z,55.74
2022-07-31T02:58:41.968Z,55.60
2022-07-31T03:01:14.572Z,55.59
2022-07-31T03:03:43.051Z,54.80
2022-07-31T03:06:11.004Z,53.70
2022-07-31T03:08:38.494Z,54.62
2022-07-31T03:11:06.301Z,54.07
2022-07-31T03:13:35.798Z,53.49
2022-07-31T03:16:06.015Z,53.96
2022-07-31T03:18:33.925Z,55.12
2022-07-31T03:21:01.558Z,56.42
2022-07-31T03:23:36.489Z,56.11
2022-07-31T03:26:07.836Z,55.86
2022-07-31T03:28:35.644Z,55.32
2022-07-31T03:31:02.681Z,54.40
2022-07-31T03:33:33.816Z,53.78
2022-07-31T03:36:00.784Z,53.57
2022-07-31T03:38:39.144Z,55.46
2022-07-31T03:41:24.716Z,56.84
2022-07-31T03:43:52.581Z,56.64
2022-07-31T03:46:23.640Z,56.14
2022-07-31T03:48:52.797Z,56.55
2022-07-31T03:51:20.788Z,56.48
2022-07-31T03:53:48.310Z,57.27
2022-07-31T03:56:56.796Z,56.79
2022-07-31T03:59:24.741Z,55.64
2022-07-31T04:01:58.001Z,55.35
2022-07-31T04:04:48.606Z,55.87
2022-07-31T04:07:15.589Z,56.50
2022-07-31T04:09:42.661Z,55.99
2022-07-31T04:12:10.823Z,55.20
2022-07-31T04:14:37.587Z,55.44
2022-07-31T04:17:04.404Z,55.11
2022-07-31T04:19:31.565Z,56.08
2022-07-31T04:21:59.467Z,55.85
2022-07-31T04:24:26.945Z,57.14
2022-07-31T04:27:17.708Z,56.64
2022-07-31T04:29:45.803Z,55.82
2022-07-31T04:32:12.511Z,55.57
2022-07-31T04:34:46.173Z,56.11
2022-07-31T04:37:12.845Z,57.63
2022-07-31T04:39:39.704Z,57.03
2022-07-31T04:42:10.863Z,57.85
2022-07-31T04:44:37.922Z,59.12
2022-07-31T04:47:06.705Z,57.36
2022-07-31T04:49:36.402Z,58.37
2022-07-31T04:52:05.912Z,59.41
2022-07-31T04:54:33.350Z,58.77
2022-07-31T04:57:00.017Z,59.03
2022-07-31T04:59:58.208Z,58.48
2022-07-31T05:02:14.458Z,59.46
2022-07-31T05:04:41.091Z,59.03
2022-07-31T05:07:07.785Z,56.73
2022-07-31T05:09:36.350Z,56.81
2022-07-31T05:12:06.076Z,56.61
2022-07-31T05:14:33.435Z,57.60
2022-07-31T05:17:00.093Z,57.28
2022-07-31T05:19:38.538Z,57.29
2022-07-31T05:22:35.597Z,57.85
2022-07-31T05:25:11.366Z,57.66
2022-07-31T05:27:39.061Z,57.44
2022-07-31T05:30:08.580Z,56.82
2022-07-31T05:32:36.738Z,56.28
2022-07-31T05:35:04.007Z,56.80
2022-07-31T05:37:31.391Z,56.46
2022-07-31T05:39:59.021Z,57.53
2022-07-31T05:42:44.929Z,56.50
2022-07-31T05:45:24.950Z,56.04
2022-07-31T05:47:51.947Z,57.82
2022-07-31T05:50:18.927Z,58.07
2022-07-31T05:52:45.705Z,57.08
2022-07-31T05:55:38.503Z,57.35
2022-07-31T05:58:25.492Z,55.59
2022-07-31T06:00:52.130Z,54.48
2022-07-31T06:03:23.774Z,57.28
2022-07-31T06:05:59.733Z,55.66
2022-07-31T06:08:26.563Z,55.11
2022-07-31T06:10:53.426Z,54.54
2022-07-31T06:13:24.242Z,55.45
2022-07-31T06:15:50.967Z,53.96
2022-07-31T06:18:17.601Z,53.09
2022-07-31T06:20:44.580Z,53.53
2022-07-31T06:23:19.921Z,55.23
2022-07-31T06:26:01.329Z,53.15
2022-07-31T06:28:46.520Z,52.50
2022-07-31T06:31:20.257Z,51.54
2022-07-31T06:33:48.518Z,51.53
2022-07-31T06:36:17.740Z,52.58
2022-07-31T06:39:03.716Z,51.95
2022-07-31T06:41:46.955Z,50.12
2022-07-31T06:44:28.958Z,49.88
2022-07-31T06:47:17.760Z,50.00
2022-07-31T06:49:50.900Z,51.42
2022-07-31T06:52:18.572Z,51.62
2022-07-31T06:54:46.035Z,51.23
2022-07-31T06:57:12.633Z,50.31
2022-07-31T06:59:40.802Z,49.32
2022-07-31T07:02:08.819Z,49.81
2022-07-31T07:05:01.485Z,51.48
2022-07-31T07:07:22.680Z,50.38
2022-07-31T07:09:51.038Z,50.54
2022-07-31T07:12:36.052Z,50.50
2022-07-31T07:15:02.833Z,49.08
2022-07-31T07:17:29.944Z,49.80
2022-07-31T07:19:56.984Z,49.66
2022-07-31T07:22:32.002Z,49.15
2022-07-31T07:25:01.284Z,50.61
2022-07-31T07:27:28.177Z,50.29
2022-07-31T07:29:55.454Z,48.83
2022-07-31T07:32:22.065Z,49.53
2022-07-31T07:34:48.873Z,49.92
2022-07-31T07:37:49.882Z,48.50
2022-07-31T07:40:19.606Z,50.43
2022-07-31T07:42:46.926Z,47.39
2022-07-31T07:45:13.930Z,47.75
2022-07-31T07:48:05.111Z,48.09
2022-07-31T07:50:30.785Z,49.02
2022-07-31T07:53:27.441Z,49.44
2022-07-31T07:56:12.717Z,47.55
2022-07-31T07:58:57.727Z,47.49
2022-07-31T08:01:42.878Z,47.13
2022-07-31T08:04:21.526Z,50.16
2022-07-31T08:06:48.130Z,49.24
2022-07-31T08:09:15.959Z,49.37
2022-07-31T08:12:02.028Z,48.19
2022-07-31T08:14:49.097Z,48.19
2022-07-31T08:17:47.919Z,47.57
2022-07-31T08:20:14.569Z,47.04
2022-07-31T08:22:41.693Z,48.54
2022-07-31T08:25:14.237Z,49.38
2022-07-31T08:27:44.333Z,48.48
2022-07-31T08:30:15.969Z,48.54
2022-07-31T08:32:42.752Z,47.26
2022-07-31T08:35:16.476Z,46.55
2022-07-31T08:38:01.275Z,46.26
2022-07-31T08:40:32.757Z,46.93
2022-07-31T08:43:31.012Z,46.95
2022-07-31T08:45:59.931Z,47.32
2022-07-31T08:48:32.578Z,46.20
2022-07-31T08:51:03.365Z,46.38
2022-07-31T08:53:50.396Z,45.18
2022-07-31T08:56:20.428Z,44.17
2022-07-31T08:58:47.018Z,43.63
2022-07-31T09:01:15.034Z,45.34
2022-07-31T09:03:42.222Z,44.81
2022-07-31T09:06:13.268Z,44.17
2022-07-31T09:08:41.541Z,43.98
2022-07-31T09:11:11.721Z,44.73
2022-07-31T09:14:02.599Z,43.63
2022-07-31T09:16:50.391Z,42.33
2022-07-31T09:19:51.174Z,43.11
2022-07-31T09:22:21.116Z,40.40
2022-07-31T09:24:49.400Z,40.85
2022-07-31T09:27:17.831Z,40.39
2022-07-31T09:29:49.032Z,41.31
2022-07-31T09:32:34.343Z,41.23
2022-07-31T09:35:15.679Z,42.64
2022-07-31T09:37:47.578Z,42.26
2022-07-31T09:40:35.436Z,40.33
2022-07-31T09:43:31.663Z,39.21
2022-07-31T09:46:00.612Z,38.19
2022-07-31T09:48:28.821Z,40.96
2022-07-31T09:51:07.739Z,40.61
2022-07-31T09:53:43.711Z,40.46
2022-07-31T09:56:31.133Z,38.61
2022-07-31T09:58:58.979Z,39.68
2022-07-31T10:01:26.318Z,39.44
2022-07-31T10:03:56.438Z,36.98
2022-07-31T10:06:25.457Z,35.25
2022-07-31T10:08:53.797Z,38.54
2022-07-31T10:11:27.580Z,37.57
2022-07-31T10:14:21.373Z,37.29
2022-07-31T10:16:49.008Z,37.40
2022-07-31T10:19:37.657Z,36.13
2022-07-31T10:22:25.095Z,36.32
2022-07-31T10:24:54.920Z,37.07
2022-07-31T10:27:21.913Z,35.93
2022-07-31T10:29:57.170Z,38.18
2022-07-31T10:32:24.290Z,36.19
2022-07-31T10:35:20.599Z,35.93
2022-07-31T10:38:28.290Z,35.08
2022-07-31T10:41:32.657Z,34.25
2022-07-31T10:44:07.694Z,33.39
2022-07-31T10:46:45.263Z,33.77
2022-07-31T10:49:49.589Z,33.14
2022-07-31T10:52:35.339Z,33.70
2022-07-31T10:55:27.284Z,33.73
2022-07-31T10:58:21.901Z,34.64
2022-07-31T11:01:12.017Z,34.15
2022-07-31T11:04:27.441Z,36.21
2022-07-31T11:07:19.713Z,33.73
2022-07-31T11:10:13.534Z,33.21
2022-07-31T11:13:12.887Z,32.60
2022-07-31T11:15:45.838Z,32.57
2022-07-31T11:18:34.626Z,33.07
2022-07-31T11:21:22.874Z,32.45
2022-07-31T11:23:55.868Z,31.40
2022-07-31T11:26:32.860Z,33.34
2022-07-31T11:29:58.785Z,32.11
2022-07-31T11:31:55.540Z,32.98
2022-07-31T11:34:22.196Z,31.88
2022-07-31T11:36:51.451Z,29.54
2022-07-31T11:39:36.832Z,30.62
2022-07-31T11:42:04.805Z,32.52
2022-07-31T11:44:34.090Z,31.87
2022-07-31T11:47:00.841Z,31.94
2022-07-31T11:49:47.959Z,32.61
2022-07-31T11:52:31.302Z,30.89
2022-07-31T11:55:13.267Z,30.47
2022-07-31T11:57:52.262Z,31.69
2022-07-31T12:00:26.691Z,31.49
2022-07-31T12:02:57.364Z,31.58
2022-07-31T12:05:37.842Z,32.72
2022-07-31T12:08:08.066Z,31.26
2022-07-31T12:10:35.318Z,31.49
2022-07-31T12:13:02.452Z,31.04
2022-07-31T12:15:29.222Z,30.68
2022-07-31T12:18:03.733Z,32.84
2022-07-31T12:20:36.244Z,31.56
2022-07-31T12:23:06.032Z,32.18
2022-07-31T12:25:43.352Z,29.42
2022-07-31T12:28:13.812Z,30.80
2022-07-31T12:30:42.058Z,30.00
2022-07-31T12:33:10.456Z,30.13
2022-07-31T12:35:56.095Z,29.32
2022-07-31T12:38:44.782Z,30.31
2022-07-31T12:41:13.462Z,30.68
2022-07-31T12:43:50.083Z,29.65
2022-07-31T12:46:34.897Z,28.89
2022-07-31T12:49:01.734Z,28.89
2022-07-31T12:51:44.716Z,29.23
2022-07-31T12:54:17.871Z,30.53
2022-07-31T12:56:46.313Z,30.80
2022-07-31T12:59:13.715Z,31.75
2022-07-31T13:01:40.820Z,31.12
2022-07-31T13:04:19.253Z,29.81
2022-07-31T13:06:48.625Z,30.06
2022-07-31T13:09:15.855Z,30.23
2022-07-31T13:11:46.374Z,30.27
2022-07-31T13:14:20.371Z,31.24
2022-07-31T13:16:48.402Z,28.56
2022-07-31T13:19:15.561Z,29.85
2022-07-31T13:21:48.816Z,27.37
2022-07-31T13:24:16.470Z,27.68
2022-07-31T13:26:45.225Z,27.68
2022-07-31T13:29:12.412Z,27.06
2022-07-31T13:31:39.378Z,28.25
2022-07-31T13:34:06.752Z,28.62
2022-07-31T13:36:38.774Z,28.11
2022-07-31T13:39:09.665Z,28.92
2022-07-31T13:41:39.073Z,28.18
2022-07-31T13:44:07.042Z,28.60
2022-07-31T13:46:34.128Z,29.52
2022-07-31T13:49:02.045Z,30.19
2022-07-31T13:51:29.698Z,28.51
2022-07-31T13:53:56.538Z,29.03
2022-07-31T13:56:39.039Z,29.79
2022-07-31T13:59:13.434Z,27.54
2022-07-31T14:02:04.203Z,28.09
2022-07-31T14:04:31.352Z,28.28
2022-07-31T14:07:01.024Z,29.19
2022-07-31T14:09:28.330Z,28.94
2022-07-31T14:11:56.282Z,27.12
2022-07-31T14:14:23.852Z,28.19
2022-07-31T14:16:51.150Z,28.87
2022-07-31T14:19:17.812Z,29.44
2022-07-31T14:21:56.071Z,28.35
2022-07-31T14:24:25.741Z,28.31
2022-07-31T14:26:52.664Z,29.29
2022-07-31T14:29:19.635Z,29.79
2022-07-31T14:31:46.221Z,27.59
2022-07-31T14:34:12.823Z,27.45
2022-07-31T14:36:39.344Z,29.08
2022-07-31T14:39:06.093Z,28.82
2022-07-31T14:41:32.795Z,27.01
2022-07-31T14:43:59.409Z,26.78
2022-07-31T14:46:25.979Z,28.82
2022-07-31T14:48:52.663Z,27.64
2022-07-31T14:51:19.641Z,29.59
2022-07-31T14:53:46.908Z,28.52
2022-07-31T14:56:13.496Z,29.84
2022-07-31T14:58:57.358Z,29.95
2022-07-31T15:01:30.391Z,30.16
2022-07-31T15:03:57.479Z,28.57
2022-07-31T15:06:51.061Z,29.07
2022-07-31T15:09:10.866Z,28.65
2022-07-31T15:11:59.018Z,30.12
2022-07-31T15:14:24.308Z,29.46
2022-07-31T15:16:50.801Z,29.56
2022-07-31T15:19:17.500Z,29.97
2022-07-31T15:22:10.125Z,29.64
2022-07-31T15:24:33.749Z,30.44
2022-07-31T15:27:00.423Z,31.55
2022-07-31T15:30:05.919Z,32.37
2022-07-31T15:32:14.021Z,33.75
2022-07-31T15:34:40.551Z,33.26
2022-07-31T15:37:07.595Z,32.62
2022-07-31T15:39:34.467Z,33.60
2022-07-31T15:42:02.052Z,32.76
2022-07-31T15:44:29.020Z,34.45
2022-07-31T15:46:55.723Z,34.71
2022-07-31T15:49:22.523Z,33.83
2022-07-31T15:51:49.223Z,34.56
2022-07-31T15:54:16.108Z,33.75
2022-07-31T15:56:42.824Z,33.18
2022-07-31T15:59:09.393Z,33.71
2022-07-31T16:01:37.752Z,34.53
2022-07-31T16:04:14.158Z,34.25
2022-07-31T16:06:48.852Z,33.46
2022-07-31T16:09:16.258Z,32.92
2022-07-31T16:12:04.619Z,33.65
2022-07-31T16:14:29.488Z,33.60
2022-07-31T16:17:03.870Z,34.21
2022-07-31T16:19:31.138Z,33.70
2022-07-31T16:22:01.271Z,34.00
2022-07-31T16:24:27.816Z,35.28
2022-07-31T16:26:54.587Z,34.71
2022-07-31T16:30:01.007Z,34.20
2022-07-31T16:32:12.006Z,34.79
2022-07-31T16:34:39.682Z,34.78
2022-07-31T16:37:06.625Z,34.96
2022-07-31T16:39:33.491Z,34.68
2022-07-31T16:42:00.233Z,35.05
2022-07-31T16:44:26.844Z,35.01
2022-07-31T16:47:05.388Z,33.82
2022-07-31T16:49:36.939Z,34.28
2022-07-31T16:52:05.847Z,34.42
2022-07-31T16:54:32.360Z,33.44
2022-07-31T16:56:59.147Z,32.03
2022-07-31T16:59:25.726Z,33.45
2022-07-31T17:01:57.907Z,34.10
2022-07-31T17:04:27.727Z,34.26
2022-07-31T17:06:54.639Z,33.23
2022-07-31T17:09:21.726Z,33.83
2022-07-31T17:11:53.863Z,35.26
2022-07-31T17:14:22.555Z,35.23
2022-07-31T17:16:50.884Z,35.79
2022-07-31T17:19:35.930Z,36.66
2022-07-31T17:22:07.225Z,36.51
2022-07-31T17:24:37.103Z,35.42
2022-07-31T17:27:06.419Z,35.72
2022-07-31T17:29:33.299Z,36.54
2022-07-31T17:31:59.990Z,37.03
2022-07-31T17:34:26.769Z,36.22
2022-07-31T17:36:53.460Z,37.09
2022-07-31T17:39:20.025Z,37.68
2022-07-31T17:41:46.844Z,37.93
2022-07-31T17:44:14.777Z,37.88
2022-07-31T17:46:47.960Z,37.19
2022-07-31T17:49:19.603Z,38.58
2022-07-31T17:51:58.759Z,39.54
2022-07-31T17:54:31.389Z,40.60
2022-07-31T17:57:01.341Z,41.26
2022-07-31T17:59:28.514Z,41.47
2022-07-31T18:02:03.909Z,42.49
2022-07-31T18:04:35.085Z,42.14
2022-07-31T18:07:04.272Z,41.75
2022-07-31T18:09:31.918Z,43.38
2022-07-31T18:11:58.676Z,43.99
2022-07-31T18:14:26.000Z,43.97
2022-07-31T18:16:53.058Z,45.08
2022-07-31T18:19:21.463Z,44.25
2022-07-31T18:21:48.450Z,44.19
2022-07-31T18:24:14.949Z,43.98
2022-07-31T18:26:41.595Z,43.86
2022-07-31T18:29:08.159Z,43.83
2022-07-31T18:31:35.915Z,43.26
2022-07-31T18:34:06.060Z,44.80
2022-07-31T18:36:34.349Z,43.70
2022-07-31T18:39:01.547Z,45.93
2022-07-31T18:41:28.201Z,46.70
2022-07-31T18:43:55.175Z,45.59
2022-07-31T18:46:23.553Z,46.07
2022-07-31T18:48:55.347Z,46.07
2022-07-31T18:51:23.197Z,46.41
2022-07-31T18:53:50.276Z,46.40
2022-07-31T18:56:16.855Z,45.98
2022-07-31T18:58:43.448Z,47.19
2022-07-31T19:01:10.154Z,47.13
2022-07-31T19:03:37.298Z,47.19
2022-07-31T19:06:04.550Z,46.59
2022-07-31T19:08:31.296Z,46.93
2022-07-31T19:10:57.937Z,48.43
2022-07-31T19:13:24.574Z,48.41
2022-07-31T19:15:54.944Z,48.74
2022-07-31T19:18:24.417Z,47.70
2022-07-31T19:21:21.220Z,47.58
2022-07-31T19:23:45.089Z,49.33
2022-07-31T19:26:11.927Z,49.27
2022-07-31T19:28:39.865Z,49.53
2022-07-31T19:31:07.092Z,48.88
2022-07-31T19:33:33.793Z,49.36
2022-07-31T19:36:02.277Z,49.33
2022-07-31T19:38:33.538Z,50.65
2022-07-31T19:41:00.352Z,49.21
2022-07-31T19:43:27.884Z,49.16
2022-07-31T19:46:10.094Z,48.93
2022-07-31T19:48:41.298Z,49.49
2022-07-31T19:51:08.361Z,49.92
2022-07-31T19:53:35.055Z,48.86
2022-07-31T19:56:05.484Z,49.14
2022-07-31T19:58:34.287Z,47.37
2022-07-31T20:01:01.352Z,49.29
2022-07-31T20:03:28.161Z,49.08
2022-07-31T20:05:56.355Z,48.91
2022-07-31T20:08:23.498Z,49.36
2022-07-31T20:10:50.057Z,50.33
2022-07-31T20:13:18.162Z,49.55
2022-07-31T20:15:51.029Z,50.10
2022-07-31T20:18:27.319Z,49.68
2022-07-31T20:20:59.469Z,49.92
2022-07-31T20:23:27.617Z,48.15
2022-07-31T20:25:54.261Z,48.47
2022-07-31T20:28:21.290Z,49.39
2022-07-31T20:30:48.260Z,50.02
2022-07-31T20:33:15.335Z,48.95
2022-07-31T20:35:47.942Z,48.03
2022-07-31T20:38:17.710Z,48.29
2022-07-31T20:40:54.643Z,49.60
2022-07-31T20:43:27.547Z,48.48
2022-07-31T20:45:58.480Z,47.36
2022-07-31T20:48:32.155Z,47.65
2022-07-31T20:51:00.945Z,48.58
2022-07-31T20:53:28.356Z,50.33
2022-07-31T20:55:55.316Z,48.64
2022-07-31T20:58:23.063Z,49.49
2022-07-31T21:00:51.314Z,50.15
2022-07-31T21:03:18.754Z,49.88
2022-07-31T21:05:46.595Z,49.64
2022-07-31T21:08:13.259Z,49.48
2022-07-31T21:10:40.114Z,49.05
2022-07-31T21:13:06.762Z,50.49
2022-07-31T21:15:43.411Z,49.75
2022-07-31T21:18:15.853Z,51.12
2022-07-31T21:20:50.927Z,50.76
2022-07-31T21:23:20.000Z,51.03
2022-07-31T21:25:46.878Z,51.98
2022-07-31T21:28:13.942Z,51.70
2022-07-31T21:30:41.203Z,52.14
2022-07-31T21:33:08.597Z,50.57
2022-07-31T21:35:36.944Z,51.54
2022-07-31T21:38:05.091Z,50.90
2022-07-31T21:40:36.029Z,51.65
2022-07-31T21:43:03.639Z,51.83
2022-07-31T21:45:50.914Z,51.09
2022-07-31T21:48:22.125Z,51.21
2022-07-31T21:50:49.104Z,51.75
2022-07-31T21:53:15.741Z,51.14
2022-07-31T21:55:42.395Z,51.72
2022-07-31T21:58:09.327Z,50.85
2022-07-31T22:00:37.265Z,52.14
2022-07-31T22:03:04.784Z,54.02
2022-07-31T22:05:50.371Z,52.98
2022-07-31T22:08:17.053Z,52.97
2022-07-31T22:10:43.825Z,51.91
2022-07-31T22:13:10.701Z,53.25
2022-07-31T22:15:51.299Z,53.08
2022-07-31T22:18:26.492Z,52.25
2022-07-31T22:20:53.870Z,51.43
2022-07-31T22:23:21.206Z,53.41
2022-07-31T22:25:51.234Z,52.17
2022-07-31T22:28:20.692Z,52.94
2022-07-31T22:30:47.921Z,51.76
2022-07-31T22:33:14.853Z,52.68
2022-07-31T22:35:41.999Z,53.11
2022-07-31T22:38:11.019Z,52.22
2022-07-31T22:40:37.959Z,52.74
2022-07-31T22:43:47.302Z,54.42
2022-07-31T22:45:53.704Z,52.62
2022-07-31T22:48:21.705Z,52.55
2022-07-31T22:50:49.079Z,55.26
2022-07-31T22:53:15.751Z,54.55
2022-07-31T22:55:42.519Z,54.31
2022-07-31T22:58:11.281Z,55.29
2022-07-31T23:00:38.443Z,56.44
2022-07-31T23:03:05.139Z,56.08
2022-07-31T23:06:27.960Z,55.12
2022-07-31T23:08:18.998Z,54.37
2022-07-31T23:10:45.785Z,54.36
2022-07-31T23:13:12.508Z,55.36
2022-07-31T23:15:39.094Z,54.39
2022-07-31T23:18:05.939Z,54.46
2022-07-31T23:20:32.534Z,54.37
2022-07-31T23:22:59.222Z,54.16
2022-07-31T23:25:25.870Z,54.44
2022-07-31T23:27:52.515Z,53.68
2022-07-31T23:30:19.130Z,53.49
2022-07-31T23:32:45.829Z,53.78
2022-07-31T23:35:12.477Z,55.23
2022-07-31T23:37:39.122Z,54.75
2022-07-31T23:40:06.385Z,54.98
2022-07-31T23:42:39.101Z,57.52
2022-07-31T23:45:08.752Z,55.63
2022-07-31T23:47:44.671Z,56.31
2022-07-31T23:50:13.611Z,56.56
2022-07-31T23:52:40.456Z,55.50
2022-07-31T23:55:07.250Z,56.44
2022-07-31T23:57:34.661Z,55.57
